Time;durP1;ratioP1;P1;durP2;ratioP2;P2;SDS_P1;SDS_P2;PMS_P1;PMS_P2;Temp;Humidity;BMP_temperature;BMP_pressure;BME280_temperature;BME280_humidity;BME280_pressure;Samples;Min_cycle;Max_cycle;Signal;HPM_P1;HPM_P2
2022/10/20 00:01:19;;;;;;;19.13;5.90;;;9.80;99.90;;;;;;5094556;28;20039;-51
2022/10/20 00:03:46;;;;;;;10.30;6.00;;;9.80;99.90;;;;;;5094625;28;20111;-51
2022/10/20 00:06:16;;;;;;;8.77;5.80;;;9.80;99.90;;;;;;5094433;28;20025;-50
2022/10/20 00:08:42;;;;;;;15.10;5.47;;;9.70;99.90;;;;;;5094396;28;20089;-53
2022/10/20 00:11:10;;;;;;;22.13;5.55;;;9.80;99.90;;;;;;5094108;28;20043;-50
2022/10/20 00:13:39;;;;;;;14.00;5.85;;;9.80;99.90;;;;;;5094469;28;20023;-49
2022/10/20 00:16:05;;;;;;;12.85;5.47;;;9.80;99.90;;;;;;5094379;28;20077;-49
2022/10/20 00:18:31;;;;;;;11.27;5.55;;;9.80;99.90;;;;;;5094154;28;20016;-50
2022/10/20 00:20:57;;;;;;;14.48;4.85;;;9.80;99.90;;;;;;5094406;28;20043;-50
2022/10/20 00:23:23;;;;;;;9.38;5.68;;;9.80;99.90;;;;;;5094155;28;20024;-52
2022/10/20 00:26:00;;;;;;;9.75;6.28;;;9.70;99.90;;;;;;5094207;28;20028;-50
2022/10/20 00:28:25;;;;;;;10.43;4.43;;;9.70;99.90;;;;;;5094131;28;20141;-50
2022/10/20 00:30:55;;;;;;;12.32;4.90;;;9.60;99.90;;;;;;5094111;28;20135;-50
2022/10/20 00:33:21;;;;;;;9.93;4.82;;;9.60;99.90;;;;;;5092652;28;20031;-51
2022/10/20 00:35:46;;;;;;;6.63;4.97;;;9.70;99.90;;;;;;5094012;28;20028;-51
2022/10/20 00:38:12;;;;;;;14.15;5.45;;;9.60;99.90;;;;;;5093874;28;20165;-49
2022/10/20 00:40:37;;;;;;;6.85;4.97;;;9.50;99.90;;;;;;5093930;28;20032;-50
2022/10/20 00:43:03;;;;;;;9.20;5.03;;;9.50;99.90;;;;;;5093985;28;20069;-51
2022/10/20 00:45:29;;;;;;;7.78;4.75;;;9.40;99.90;;;;;;5092536;28;20544;-50
2022/10/20 00:47:58;;;;;;;8.35;5.30;;;9.40;99.90;;;;;;5093683;28;20047;-51
2022/10/20 00:50:33;;;;;;;8.52;5.10;;;9.30;99.90;;;;;;5093641;28;20023;-50
2022/10/20 00:53:01;;;;;;;21.15;5.35;;;9.30;99.90;;;;;;5093565;28;20039;-49
2022/10/20 00:55:29;;;;;;;7.28;4.72;;;9.30;99.90;;;;;;5093658;28;20388;-50
2022/10/20 00:57:58;;;;;;;8.00;4.60;;;9.20;99.90;;;;;;5093691;28;20039;-50
2022/10/20 01:00:25;;;;;;;9.93;5.30;;;9.20;99.90;;;;;;5093467;28;20016;-49
2022/10/20 01:02:53;;;;;;;10.85;5.22;;;9.10;99.90;;;;;;5093641;28;20077;-52
2022/10/20 01:05:19;;;;;;;10.73;5.68;;;9.10;99.90;;;;;;5093335;28;20529;-51
2022/10/20 01:07:45;;;;;;;15.90;5.65;;;9.10;99.90;;;;;;5093203;28;20043;-50
2022/10/20 01:10:12;;;;;;;10.05;5.05;;;9.00;99.90;;;;;;5093305;28;20034;-50
2022/10/20 01:12:51;;;;;;;8.20;4.72;;;9.00;99.90;;;;;;5093336;28;20444;-51
2022/10/20 01:15:31;;;;;;;8.88;4.85;;;9.00;99.90;;;;;;5093269;28;20024;-50
2022/10/20 01:18:20;;;;;;;11.75;5.85;;;9.00;99.90;;;;;;5093176;28;20032;-49
2022/10/20 01:21:03;;;;;;;8.43;5.13;;;9.00;99.90;;;;;;5093208;28;20016;-51
2022/10/20 01:23:47;;;;;;;19.05;5.15;;;8.90;99.90;;;;;;5093175;28;20059;-51
2022/10/20 01:26:28;;;;;;;13.40;5.30;;;8.90;99.90;;;;;;5092926;28;20459;-51
2022/10/20 01:29:02;;;;;;;11.65;5.55;;;8.90;99.90;;;;;;5092962;28;20107;-50
2022/10/20 01:31:32;;;;;;;5.88;4.82;;;8.90;99.90;;;;;;5092511;28;20039;-50
2022/10/20 01:34:30;;;;;;;13.10;4.88;;;8.90;99.90;;;;;;5093049;28;20031;-52
2022/10/20 01:37:11;;;;;;;17.90;5.82;;;8.80;99.90;;;;;;5082989;28;20519;-51
2022/10/20 01:40:23;;;;;;;8.18;5.03;;;8.80;99.90;;;;;;5091513;28;20047;-51
2022/10/20 01:42:51;;;;;;;8.88;5.85;;;8.80;99.90;;;;;;5075778;28;20032;-51
2022/10/20 01:45:20;;;;;;;10.73;5.05;;;8.80;99.90;;;;;;5092539;28;20598;-50
2022/10/20 01:47:49;;;;;;;10.95;5.93;;;8.80;99.90;;;;;;5092587;28;20024;-52
2022/10/20 01:50:15;;;;;;;7.30;5.80;;;8.90;99.90;;;;;;5092318;28;20078;-50
2022/10/20 01:52:41;;;;;;;10.25;4.97;;;8.90;99.90;;;;;;5091150;28;20035;-50
2022/10/20 01:55:16;;;;;;;7.70;5.32;;;8.90;99.90;;;;;;5092387;28;20021;-51
2022/10/20 01:58:06;;;;;;;8.93;5.30;;;8.90;99.90;;;;;;5092517;28;20019;-51
2022/10/20 02:00:36;;;;;;;9.10;4.80;;;8.90;99.90;;;;;;5092348;28;20127;-51
2022/10/20 02:03:40;;;;;;;10.07;5.63;;;8.80;99.90;;;;;;5092386;28;20024;-52
2022/10/20 02:06:27;;;;;;;18.67;6.22;;;8.90;99.90;;;;;;5091979;28;20030;-51
2022/10/20 02:09:05;;;;;;;11.63;5.70;;;8.90;99.90;;;;;;5092201;28;20047;-51
2022/10/20 02:11:47;;;;;;;8.98;5.68;;;8.90;99.90;;;;;;5090796;28;20067;-49
2022/10/20 02:14:15;;;;;;;10.77;6.45;;;8.90;99.90;;;;;;5091967;28;20047;-49
2022/10/20 02:16:57;;;;;;;7.03;6.28;;;8.90;99.90;;;;;;5091099;28;20451;-50
2022/10/20 02:19:27;;;;;;;12.68;5.50;;;8.90;99.90;;;;;;5091976;28;20030;-51
2022/10/20 02:21:55;;;;;;;11.38;5.15;;;9.00;99.90;;;;;;5092094;28;20154;-50
2022/10/20 02:24:25;;;;;;;8.18;5.70;;;8.90;99.90;;;;;;5091968;28;20097;-50
2022/10/20 02:26:54;;;;;;;9.38;5.18;;;8.90;99.90;;;;;;5091954;28;20024;-53
2022/10/20 02:29:26;;;;;;;10.15;6.03;;;8.90;99.90;;;;;;5091809;28;20028;-51
2022/10/20 02:31:53;;;;;;;10.27;5.00;;;8.90;99.90;;;;;;5090522;28;20020;-50
2022/10/20 02:34:18;;;;;;;10.73;5.55;;;8.90;99.90;;;;;;5091810;28;20101;-50
2022/10/20 02:36:44;;;;;;;8.50;5.95;;;8.90;99.90;;;;;;5091880;28;20055;-54
2022/10/20 02:39:10;;;;;;;13.00;5.90;;;8.90;99.90;;;;;;5091611;28;20036;-51
2022/10/20 02:41:36;;;;;;;7.18;4.68;;;8.90;99.90;;;;;;5090865;28;20012;-50
2022/10/20 02:44:02;;;;;;;7.97;5.50;;;8.90;99.90;;;;;;5091540;28;20153;-52
2022/10/20 02:46:28;;;;;;;14.27;5.10;;;8.90;99.90;;;;;;5090868;28;20106;-50
2022/10/20 02:48:53;;;;;;;16.00;5.10;;;8.80;99.90;;;;;;5091108;28;20028;-50
2022/10/20 02:51:19;;;;;;;10.45;6.07;;;8.80;99.90;;;;;;5091253;28;20024;-51
2022/10/20 02:53:45;;;;;;;9.05;5.35;;;8.80;99.90;;;;;;5089755;28;20082;-51
2022/10/20 02:56:11;;;;;;;8.65;5.32;;;8.80;99.90;;;;;;5090829;28;20091;-50
2022/10/20 02:58:37;;;;;;;18.75;5.63;;;8.80;99.90;;;;;;5091582;28;20123;-50
2022/10/20 03:01:03;;;;;;;7.95;5.25;;;8.80;99.90;;;;;;5091472;28;20103;-51
2022/10/20 03:03:28;;;;;;;9.05;5.82;;;8.80;99.90;;;;;;5091502;28;20534;-50
2022/10/20 03:05:54;;;;;;;11.70;5.63;;;8.80;99.90;;;;;;5091567;28;20036;-50
2022/10/20 03:08:20;;;;;;;10.50;4.82;;;8.80;99.90;;;;;;5091211;28;20044;-49
2022/10/20 03:10:46;;;;;;;9.88;5.50;;;8.80;99.90;;;;;;5091421;28;20016;-52
2022/10/20 03:13:13;;;;;;;8.15;5.20;;;8.80;99.90;;;;;;5091342;28;20107;-51
2022/10/20 03:15:39;;;;;;;10.95;6.40;;;8.70;99.90;;;;;;5091483;28;20027;-51
2022/10/20 03:18:04;;;;;;;8.13;5.47;;;8.80;99.90;;;;;;5091282;28;20024;-51
2022/10/20 03:20:30;;;;;;;7.35;5.88;;;8.70;99.90;;;;;;5091452;28;20142;-50
2022/10/20 03:22:56;;;;;;;15.55;5.60;;;8.70;99.90;;;;;;5091484;28;20020;-49
2022/10/20 03:25:21;;;;;;;10.52;6.03;;;8.60;99.90;;;;;;5091335;28;20066;-49
2022/10/20 03:27:47;;;;;;;12.80;5.85;;;8.60;99.90;;;;;;5090014;28;20124;-51
2022/10/20 03:30:13;;;;;;;9.18;5.45;;;8.70;99.90;;;;;;5091295;28;20394;-50
2022/10/20 03:32:38;;;;;;;15.30;5.85;;;8.70;99.90;;;;;;5091199;28;20028;-50
2022/10/20 03:35:04;;;;;;;10.20;6.28;;;8.60;99.90;;;;;;5091124;28;20034;-50
2022/10/20 03:37:30;;;;;;;8.05;5.32;;;8.70;99.90;;;;;;5089727;28;20016;-50
2022/10/20 03:39:55;;;;;;;12.93;5.75;;;8.60;99.90;;;;;;5091275;28;20608;-51
2022/10/20 03:42:21;;;;;;;6.63;5.47;;;8.60;99.90;;;;;;5089751;28;20680;-51
2022/10/20 03:44:47;;;;;;;8.55;6.07;;;8.60;99.90;;;;;;5091361;28;20068;-50
2022/10/20 03:47:12;;;;;;;8.50;6.20;;;8.50;99.90;;;;;;5090808;28;20035;-50
2022/10/20 03:49:39;;;;;;;9.63;6.10;;;8.50;99.90;;;;;;5091209;28;20728;-51
2022/10/20 03:52:04;;;;;;;10.40;5.88;;;8.50;99.90;;;;;;5090827;28;20027;-50
2022/10/20 03:54:30;;;;;;;9.40;5.53;;;8.50;99.90;;;;;;5094599;28;20016;-49
2022/10/20 03:56:56;;;;;;;13.18;6.05;;;8.50;99.90;;;;;;5094801;28;20035;-50
2022/10/20 03:59:22;;;;;;;8.00;5.05;;;8.50;99.90;;;;;;5094746;28;20032;-51
2022/10/20 04:01:48;;;;;;;15.93;7.00;;;8.40;99.90;;;;;;5094640;28;20031;-51
2022/10/20 04:04:13;;;;;;;13.35;6.65;;;8.50;99.90;;;;;;5094506;28;20020;-50
2022/10/20 04:06:39;;;;;;;11.73;5.85;;;8.40;99.90;;;;;;5094445;28;20108;-50
2022/10/20 04:09:05;;;;;;;12.02;6.18;;;8.40;99.90;;;;;;5094319;28;20055;-51
2022/10/20 04:11:31;;;;;;;11.95;6.78;;;8.30;99.90;;;;;;5094396;28;20035;-50
2022/10/20 04:13:57;;;;;;;11.32;7.70;;;8.30;99.90;;;;;;5094493;28;20111;-50
2022/10/20 04:16:23;;;;;;;17.83;5.65;;;8.20;99.90;;;;;;5094378;28;20107;-49
2022/10/20 04:18:50;;;;;;;14.02;6.90;;;8.30;99.90;;;;;;5094386;28;20081;-49
2022/10/20 04:21:16;;;;;;;13.82;6.10;;;8.20;99.90;;;;;;5094011;28;20089;-50
2022/10/20 04:23:41;;;;;;;7.40;5.85;;;8.20;99.90;;;;;;5094107;28;20032;-50
2022/10/20 04:26:13;;;;;;;7.88;5.78;;;8.20;99.90;;;;;;5093911;28;20035;-50
2022/10/20 04:28:39;;;;;;;9.68;6.10;;;8.20;99.90;;;;;;5094145;28;20107;-50
2022/10/20 04:31:06;;;;;;;10.52;6.10;;;8.30;99.90;;;;;;5093921;28;20445;-50
2022/10/20 04:33:32;;;;;;;12.38;6.35;;;8.20;99.90;;;;;;5092870;28;20016;-53
2022/10/20 04:36:00;;;;;;;11.50;6.57;;;8.20;99.90;;;;;;5093848;28;20386;-52
2022/10/20 04:38:28;;;;;;;7.93;6.25;;;8.30;99.90;;;;;;5092413;28;20536;-51
2022/10/20 04:40:58;;;;;;;12.23;6.22;;;8.30;99.90;;;;;;5093890;28;20020;-54
2022/10/20 04:43:23;;;;;;;13.32;6.57;;;8.20;99.90;;;;;;5093619;28;20056;-52
2022/10/20 04:45:49;;;;;;;11.18;6.60;;;8.20;99.90;;;;;;5093828;28;20097;-53
2022/10/20 04:48:15;;;;;;;9.15;5.97;;;8.20;99.90;;;;;;5093769;28;20084;-52
2022/10/20 04:50:41;;;;;;;17.63;6.28;;;8.20;99.90;;;;;;5093738;28;20921;-51
2022/10/20 04:53:08;;;;;;;18.33;8.63;;;8.20;99.90;;;;;;5093500;28;20213;-52
2022/10/20 04:55:34;;;;;;;8.43;6.68;;;8.20;99.90;;;;;;5093791;28;20024;-50
2022/10/20 04:58:00;;;;;;;11.15;6.85;;;8.20;99.90;;;;;;5093711;28;20024;-51
2022/10/20 05:00:25;;;;;;;8.82;6.35;;;8.20;99.90;;;;;;5093517;28;20022;-50
2022/10/20 05:02:51;;;;;;;9.57;6.68;;;8.10;99.90;;;;;;5093554;28;20059;-51
2022/10/20 05:05:16;;;;;;;12.38;6.93;;;8.20;99.90;;;;;;5092384;28;20052;-53
2022/10/20 05:07:42;;;;;;;13.02;7.40;;;8.20;99.90;;;;;;5093144;28;20442;-51
2022/10/20 05:10:08;;;;;;;11.10;6.97;;;8.20;99.90;;;;;;5093279;28;20034;-52
2022/10/20 05:12:34;;;;;;;11.88;6.93;;;8.20;99.90;;;;;;5093008;28;20103;-53
2022/10/20 05:14:59;;;;;;;22.30;7.10;;;8.20;99.90;;;;;;5093283;28;20583;-55
2022/10/20 05:17:28;;;;;;;9.90;6.88;;;8.20;99.90;;;;;;5093155;28;20533;-52
2022/10/20 05:19:54;;;;;;;10.73;6.30;;;8.20;99.90;;;;;;5093237;28;20074;-51
2022/10/20 05:22:19;;;;;;;9.18;6.95;;;8.20;99.90;;;;;;5093120;28;20024;-50
2022/10/20 05:24:45;;;;;;;13.05;6.47;;;8.20;99.90;;;;;;5093068;28;20028;-52
2022/10/20 05:27:11;;;;;;;9.77;6.40;;;8.20;99.90;;;;;;5092975;28;20024;-52
2022/10/20 05:29:36;;;;;;;11.65;7.07;;;8.20;99.90;;;;;;5093052;28;20395;-50
2022/10/20 05:32:02;;;;;;;11.25;6.50;;;8.20;99.90;;;;;;5092660;28;20031;-53
2022/10/20 05:34:28;;;;;;;7.88;6.95;;;8.30;99.90;;;;;;5092947;28;20111;-51
2022/10/20 05:36:53;;;;;;;18.50;7.07;;;8.20;99.90;;;;;;5092758;28;20467;-55
2022/10/20 05:39:20;;;;;;;9.40;6.18;;;8.20;99.90;;;;;;5092818;28;20070;-50
2022/10/20 05:41:46;;;;;;;10.32;7.07;;;8.20;99.90;;;;;;5092523;28;20043;-51
2022/10/20 05:44:12;;;;;;;10.02;6.80;;;8.10;99.90;;;;;;5092280;28;20032;-53
2022/10/20 05:46:41;;;;;;;13.35;7.32;;;8.10;99.90;;;;;;5092418;28;20110;-51
2022/10/20 05:49:13;;;;;;;13.65;6.60;;;8.20;99.90;;;;;;5092587;28;20028;-52
2022/10/20 05:51:38;;;;;;;8.55;6.82;;;8.10;99.90;;;;;;5092376;28;20491;-52
2022/10/20 05:54:04;;;;;;;13.65;7.38;;;8.00;99.90;;;;;;5092510;28;20032;-54
2022/10/20 05:56:30;;;;;;;15.93;7.05;;;8.10;99.90;;;;;;5092358;28;20028;-50
2022/10/20 05:58:57;;;;;;;20.85;7.72;;;8.00;99.90;;;;;;5092263;28;20151;-50
2022/10/20 06:01:25;;;;;;;10.60;7.05;;;7.90;99.90;;;;;;5091483;28;20028;-50
2022/10/20 06:03:55;;;;;;;11.73;7.65;;;8.00;99.90;;;;;;5091117;28;20020;-51
2022/10/20 06:06:24;;;;;;;11.85;6.90;;;7.90;99.90;;;;;;5090989;28;20412;-50
2022/10/20 06:08:50;;;;;;;13.52;7.22;;;8.00;99.90;;;;;;5090844;28;20509;-52
2022/10/20 06:11:16;;;;;;;12.45;7.13;;;8.00;99.90;;;;;;5090899;28;20095;-50
2022/10/20 06:13:42;;;;;;;9.40;6.68;;;8.00;99.90;;;;;;5091328;28;20078;-51
2022/10/20 06:16:10;;;;;;;8.52;7.07;;;8.00;99.90;;;;;;5090634;28;20157;-50
2022/10/20 06:18:39;;;;;;;12.85;7.18;;;8.00;99.90;;;;;;5090802;28;20036;-50
2022/10/20 06:21:14;;;;;;;9.43;6.38;;;7.90;99.90;;;;;;5090636;28;20047;-52
2022/10/20 06:23:40;;;;;;;13.52;7.30;;;8.00;99.90;;;;;;5090889;28;20020;-50
2022/10/20 06:26:08;;;;;;;8.68;6.07;;;8.00;99.90;;;;;;5089342;28;20116;-50
2022/10/20 06:28:36;;;;;;;9.35;6.78;;;8.00;99.90;;;;;;5091002;28;20467;-51
2022/10/20 06:31:09;;;;;;;12.65;6.85;;;8.00;99.90;;;;;;5090515;28;20471;-52
2022/10/20 06:33:35;;;;;;;;;;;8.00;99.90;;;;;;5091210;28;20027;-51
2022/10/20 06:36:01;;;;;;;10.98;6.40;;;8.10;99.90;;;;;;5090622;28;19904;-51
2022/10/20 06:38:27;;;;;;;8.93;6.82;;;8.00;99.90;;;;;;5090384;28;20024;-50
2022/10/20 06:40:53;;;;;;;9.35;7.07;;;8.10;99.90;;;;;;5090438;28;20032;-50
2022/10/20 06:43:19;;;;;;;9.13;6.78;;;8.00;99.90;;;;;;5090449;28;20020;-49
2022/10/20 06:45:56;;;;;;;18.17;6.78;;;8.10;99.90;;;;;;5089194;28;20119;-50
2022/10/20 06:48:22;;;;;;;15.60;6.68;;;8.10;99.90;;;;;;5090331;28;20024;-53
2022/10/20 06:50:48;;;;;;;7.05;6.28;;;8.00;99.90;;;;;;5089171;28;20109;-51
2022/10/20 06:53:14;;;;;;;10.90;6.15;;;8.10;99.90;;;;;;5088883;28;20020;-53
2022/10/20 06:55:40;;;;;;;10.10;6.25;;;8.20;99.90;;;;;;5090426;28;20481;-50
2022/10/20 06:58:06;;;;;;;10.23;5.68;;;8.20;99.90;;;;;;5090200;28;20380;-51
2022/10/20 07:00:32;;;;;;;11.45;6.50;;;8.30;99.90;;;;;;5090356;28;20021;-51
2022/10/20 07:02:57;;;;;;;7.72;6.25;;;8.40;99.90;;;;;;5090376;28;20483;-51
2022/10/20 07:05:23;;;;;;;14.73;6.47;;;8.40;99.90;;;;;;5088807;28;20028;-51
2022/10/20 07:07:51;;;;;;;10.65;6.10;;;8.40;99.90;;;;;;5090047;28;20044;-50
2022/10/20 07:10:17;;;;;;;6.40;5.28;;;8.50;99.90;;;;;;5090177;28;20438;-53
2022/10/20 07:12:43;;;;;;;13.27;5.93;;;8.40;99.90;;;;;;5088753;28;20085;-50
2022/10/20 07:15:09;;;;;;;10.38;6.10;;;8.40;99.90;;;;;;5090018;28;20047;-54
2022/10/20 07:17:35;;;;;;;6.38;5.32;;;8.50;99.90;;;;;;5090100;28;20024;-49
2022/10/20 07:20:00;;;;;;;10.57;6.30;;;8.60;99.90;;;;;;5090159;28;20036;-51
2022/10/20 07:22:26;;;;;;;9.98;6.22;;;8.60;99.90;;;;;;5089793;28;20024;-53
2022/10/20 07:24:52;;;;;;;8.20;6.20;;;8.50;99.90;;;;;;5090121;28;20020;-52
2022/10/20 07:27:18;;;;;;;11.15;6.13;;;8.70;99.90;;;;;;5089997;28;20509;-52
2022/10/20 07:29:44;;;;;;;23.30;7.05;;;8.70;99.90;;;;;;5094010;28;20028;-50
2022/10/20 07:32:09;;;;;;;10.50;6.07;;;8.60;99.90;;;;;;5093785;28;20031;-50
2022/10/20 07:34:35;;;;;;;15.25;6.22;;;8.60;99.90;;;;;;5094032;28;20383;-51
2022/10/20 07:37:01;;;;;;;13.55;7.10;;;8.50;99.90;;;;;;5092606;28;20081;-53
2022/10/20 07:39:26;;;;;;;11.35;6.40;;;8.60;99.90;;;;;;5093731;28;20028;-51
2022/10/20 07:41:52;;;;;;;15.02;5.47;;;8.70;99.90;;;;;;5093881;28;20479;-52
2022/10/20 07:44:18;;;;;;;13.18;6.95;;;8.60;99.90;;;;;;5092269;28;20020;-52
2022/10/20 07:46:44;;;;;;;13.93;6.22;;;8.70;99.90;;;;;;5093810;28;20024;-51
2022/10/20 07:49:09;;;;;;;11.15;6.30;;;8.80;99.90;;;;;;5093491;28;20031;-50
2022/10/20 07:51:35;;;;;;;11.93;7.15;;;8.80;99.90;;;;;;5093661;28;20031;-51
2022/10/20 07:54:05;;;;;;;8.82;6.97;;;8.90;99.90;;;;;;5093494;28;20427;-50
2022/10/20 07:56:34;;;;;;;16.00;7.30;;;8.70;99.90;;;;;;5093530;28;20103;-50
2022/10/20 07:59:00;;;;;;;9.30;7.10;;;8.80;99.90;;;;;;5093750;28;20021;-51
2022/10/20 08:01:26;;;;;;;11.98;6.97;;;8.90;99.90;;;;;;5093436;28;20017;-52
2022/10/20 08:03:51;;;;;;;14.93;7.57;;;8.90;99.90;;;;;;5092282;28;20024;-54
2022/10/20 08:06:17;;;;;;;9.32;7.10;;;9.00;99.90;;;;;;5093243;28;20054;-53
2022/10/20 08:08:43;;;;;;;14.75;7.82;;;9.10;99.90;;;;;;5093391;28;20064;-50
2022/10/20 08:11:09;;;;;;;13.98;6.38;;;9.10;99.90;;;;;;5093026;28;20059;-50
2022/10/20 08:13:35;;;;;;;7.20;6.47;;;9.20;99.90;;;;;;5093162;28;20032;-50
2022/10/20 08:16:01;;;;;;;20.95;6.85;;;9.00;99.90;;;;;;5093234;28;20024;-49
2022/10/20 08:18:27;;;;;;;11.57;6.60;;;9.20;99.90;;;;;;5093049;28;20052;-50
2022/10/20 08:20:53;;;;;;;14.35;6.55;;;9.30;99.90;;;;;;5093131;28;20054;-50
2022/10/20 08:23:18;;;;;;;9.55;7.15;;;9.30;99.90;;;;;;5092675;28;20028;-50
2022/10/20 08:25:44;;;;;;;13.00;8.75;;;9.30;99.90;;;;;;5092976;28;20024;-51
2022/10/20 08:28:10;;;;;;;16.95;9.82;;;9.40;99.90;;;;;;5092962;28;20024;-50
2022/10/20 08:30:36;;;;;;;17.35;8.40;;;9.30;99.90;;;;;;5092989;28;20024;-52
2022/10/20 08:33:02;;;;;;;15.55;7.45;;;9.50;99.90;;;;;;5092662;28;20031;-53
2022/10/20 08:35:28;;;;;;;16.70;8.30;;;9.60;99.90;;;;;;5092832;28;20020;-50
2022/10/20 08:37:54;;;;;;;14.50;8.25;;;9.70;99.90;;;;;;5092671;28;20149;-52
2022/10/20 08:40:24;;;;;;;12.60;9.20;;;9.80;99.90;;;;;;5092598;28;20139;-50
2022/10/20 08:42:50;;;;;;;15.02;8.30;;;9.80;99.90;;;;;;5092799;28;20420;-51
2022/10/20 08:45:19;;;;;;;11.93;8.73;;;9.90;99.90;;;;;;5090961;28;20059;-52
2022/10/20 08:47:50;;;;;;;18.38;7.82;;;10.00;99.90;;;;;;5092767;28;20050;-50
2022/10/20 08:50:18;;;;;;;10.65;7.78;;;10.00;99.90;;;;;;5092142;28;20020;-50
2022/10/20 08:52:46;;;;;;;16.23;10.30;;;10.10;99.90;;;;;;5092299;28;20036;-51
2022/10/20 08:55:32;;;;;;;9.50;6.85;;;10.10;99.90;;;;;;5092151;28;20020;-50
2022/10/20 08:58:15;;;;;;;9.55;6.75;;;10.30;99.90;;;;;;5092851;28;20016;-51
2022/10/20 09:00:42;;;;;;;9.68;7.60;;;10.50;99.90;;;;;;5093327;28;20452;-52
2022/10/20 09:03:27;;;;;;;10.95;6.72;;;10.40;99.90;;;;;;5093521;28;20032;-50
2022/10/20 09:05:57;;;;;;;13.65;7.63;;;10.60;99.90;;;;;;5093209;28;20024;-51
2022/10/20 09:08:28;;;;;;;7.10;6.40;;;10.60;99.90;;;;;;5093128;28;20082;-53
2022/10/20 09:10:54;;;;;;;8.07;6.43;;;10.90;99.90;;;;;;5093124;28;20024;-49
2022/10/20 09:13:27;;;;;;;8.55;6.53;;;11.20;99.90;;;;;;5093127;28;20028;-52
2022/10/20 09:16:32;;;;;;;8.20;6.57;;;11.20;99.90;;;;;;5093126;28;20020;-50
2022/10/20 09:19:00;;;;;;;12.50;7.18;;;11.30;99.90;;;;;;5091630;28;20353;-49
2022/10/20 09:21:27;;;;;;;10.65;6.90;;;11.30;99.90;;;;;;5092833;28;20119;-51
2022/10/20 09:23:59;;;;;;;11.95;6.20;;;11.50;99.90;;;;;;5091855;28;20020;-50
2022/10/20 09:26:45;;;;;;;9.60;7.20;;;11.80;99.90;;;;;;5092757;28;20027;-51
2022/10/20 09:29:32;;;;;;;6.90;5.63;;;11.90;99.90;;;;;;5090437;28;20475;-53
2022/10/20 09:31:58;;;;;;;12.25;6.10;;;12.40;99.90;;;;;;5091626;28;20082;-50
2022/10/20 09:34:29;;;;;;;11.60;5.30;;;12.40;99.90;;;;;;5091348;28;20012;-50
2022/10/20 09:37:11;;;;;;;12.10;5.68;;;12.40;99.90;;;;;;5090524;28;20027;-51
2022/10/20 09:39:58;;;;;;;9.52;6.07;;;12.40;99.90;;;;;;5091389;28;20106;-51
2022/10/20 09:42:32;;;;;;;12.10;6.75;;;12.90;99.90;;;;;;5091550;28;20020;-50
2022/10/20 09:45:20;;;;;;;16.20;8.65;;;13.00;99.90;;;;;;5091470;28;20036;-51
2022/10/20 09:47:50;;;;;;;17.45;9.27;;;12.90;99.90;;;;;;5091396;28;20024;-51
2022/10/20 09:50:25;;;;;;;9.88;6.60;;;13.00;99.90;;;;;;5090667;28;20024;-50
2022/10/20 09:52:52;;;;;;;14.88;7.13;;;13.10;99.90;;;;;;5091393;28;20024;-54
2022/10/20 09:55:28;;;;;;;6.05;5.18;;;13.50;99.90;;;;;;5091042;28;20134;-50
2022/10/20 09:57:56;;;;;;;12.88;5.20;;;13.90;99.90;;;;;;5091253;28;20031;-50
2022/10/20 10:00:29;;;;;;;7.15;5.43;;;14.70;99.90;;;;;;5090809;28;20027;-51
2022/10/20 10:03:22;;;;;;;11.57;5.57;;;15.60;97.80;;;;;;5090966;28;20111;-51
2022/10/20 10:05:59;;;;;;;15.38;5.15;;;16.70;95.00;;;;;;5089829;28;20060;-51
2022/10/20 10:08:28;;;;;;;8.45;4.45;;;18.00;93.80;;;;;;5090839;28;20062;-50
2022/10/20 10:11:03;;;;;;;4.82;3.65;;;18.30;90.50;;;;;;5090721;28;20024;-50
2022/10/20 10:13:36;;;;;;;7.97;4.30;;;18.00;90.80;;;;;;5091519;28;20078;-52
2022/10/20 10:16:05;;;;;;;8.65;4.70;;;18.50;89.40;;;;;;5092126;28;20070;-53
2022/10/20 10:18:32;;;;;;;7.15;3.78;;;19.00;87.80;;;;;;5090797;28;20055;-52
2022/10/20 10:21:09;;;;;;;7.32;4.10;;;19.00;87.40;;;;;;5091997;28;20036;-52
2022/10/20 10:23:49;;;;;;;6.75;4.03;;;19.90;83.10;;;;;;5092009;28;20455;-51
2022/10/20 10:26:36;;;;;;;8.70;3.78;;;19.90;80.90;;;;;;5091782;28;20413;-51
2022/10/20 10:29:02;;;;;;;5.47;4.07;;;20.40;77.80;;;;;;5091860;28;20020;-56
2022/10/20 10:31:28;;;;;;;6.05;3.78;;;20.20;78.90;;;;;;5091640;28;20016;-51
2022/10/20 10:34:01;;;;;;;5.32;3.90;;;20.30;78.10;;;;;;5091871;28;20020;-54
2022/10/20 10:36:28;;;;;;;9.43;4.60;;;20.20;78.50;;;;;;5091438;28;20024;-55
2022/10/20 10:38:55;;;;;;;4.55;3.55;;;20.10;76.00;;;;;;5091781;28;20032;-52
2022/10/20 10:41:21;;;;;;;5.25;3.83;;;20.00;78.00;;;;;;5090135;28;20031;-52
2022/10/20 10:44:07;;;;;;;11.55;3.92;;;21.20;75.70;;;;;;5091853;28;20016;-56
2022/10/20 10:46:41;;;;;;;4.45;3.85;;;20.80;75.20;;;;;;5091703;28;20028;-55
2022/10/20 10:49:10;;;;;;;14.13;3.97;;;21.00;73.10;;;;;;5091579;28;20028;-53
2022/10/20 10:51:54;;;;;;;6.75;4.50;;;20.50;73.90;;;;;;5091411;28;20031;-53
2022/10/20 10:54:37;;;;;;;7.38;3.72;;;21.10;74.10;;;;;;5072517;28;20124;-52
2022/10/20 10:57:17;;;;;;;13.00;4.38;;;20.70;73.80;;;;;;5059760;28;20128;-53
2022/10/20 10:59:44;;;;;;;17.77;4.50;;;21.10;72.70;;;;;;5061277;28;20028;-56
2022/10/20 11:02:31;;;;;;;9.52;5.18;;;21.40;71.80;;;;;;5061508;28;20472;-52
2022/10/20 11:05:15;;;;;;;10.73;4.10;;;21.40;71.70;;;;;;5065321;28;20086;-53
2022/10/20 11:07:45;;;;;;;15.60;4.32;;;21.40;70.60;;;;;;5066328;28;20052;-56
2022/10/20 11:10:54;;;;;;;5.03;3.42;;;22.40;68.80;;;;;;5065458;28;20055;-55
2022/10/20 11:13:23;;;;;;;4.38;3.83;;;23.10;67.70;;;;;;5037884;28;20527;-57
2022/10/20 11:16:04;;;;;;;11.98;4.00;;;23.30;67.90;;;;;;5064429;28;20531;-52
2022/10/20 11:19:02;;;;;;;8.75;3.38;;;22.90;67.30;;;;;;5064437;28;20028;-53
2022/10/20 11:21:50;;;;;;;8.98;4.15;;;22.40;66.40;;;;;;5063538;28;20095;-53
2022/10/20 11:24:33;;;;;;;7.22;3.53;;;21.90;66.80;;;;;;5063614;28;20468;-56
2022/10/20 11:27:35;;;;;;;10.23;4.50;;;21.90;67.30;;;;;;5064248;28;20029;-54
2022/10/20 11:30:14;;;;;;;6.70;3.95;;;21.70;67.10;;;;;;5011662;28;20123;-52
2022/10/20 11:33:02;;;;;;;9.52;3.80;;;21.80;67.90;;;;;;5063435;28;20036;-52
2022/10/20 11:35:38;;;;;;;12.93;3.65;;;22.10;66.80;;;;;;5063332;28;20025;-54
2022/10/20 11:38:16;;;;;;;6.95;3.83;;;22.80;65.80;;;;;;5063868;28;20025;-52
2022/10/20 11:40:56;;;;;;;8.73;4.30;;;22.90;64.80;;;;;;5079191;28;20063;-51
2022/10/20 11:43:22;;;;;;;10.32;3.53;;;23.30;64.60;;;;;;5063753;28;20064;-52
2022/10/20 11:46:02;;;;;;;9.80;3.85;;;23.90;63.90;;;;;;5064221;28;20651;-53
2022/10/20 11:48:46;;;;;;;7.60;3.83;;;23.80;63.10;;;;;;5064230;28;20028;-50
2022/10/20 11:51:12;;;;;;;11.70;4.13;;;23.80;61.70;;;;;;5063174;28;20047;-55
2022/10/20 11:54:02;;;;;;;6.60;3.40;;;24.20;62.00;;;;;;5079437;28;20033;-52
2022/10/20 11:56:40;;;;;;;13.45;3.95;;;24.80;62.00;;;;;;5064043;28;20460;-52
2022/10/20 11:59:14;;;;;;;9.77;3.13;;;24.30;60.90;;;;;;5063411;28;20030;-52
2022/10/20 12:02:03;;;;;;;11.68;3.55;;;23.70;60.20;;;;;;5063415;28;20029;-52
2022/10/20 12:04:29;;;;;;;6.47;3.55;;;23.60;61.70;;;;;;5063186;28;20032;-56
2022/10/20 12:07:12;;;;;;;10.05;3.38;;;24.30;62.00;;;;;;5063695;28;20472;-55
2022/10/20 12:10:01;;;;;;;12.52;3.72;;;24.50;60.00;;;;;;5064246;28;20040;-51
2022/10/20 12:12:42;;;;;;;8.25;3.53;;;24.20;59.80;;;;;;5063271;28;20158;-55
2022/10/20 12:15:23;;;;;;;8.52;3.58;;;24.80;60.70;;;;;;5062835;28;20151;-53
2022/10/20 12:17:51;;;;;;;12.05;4.47;;;24.40;59.20;;;;;;5078788;28;20644;-55
2022/10/20 12:20:19;;;;;;;10.60;4.82;;;23.60;59.60;;;;;;5063279;28;20483;-53
2022/10/20 12:22:53;;;;;;;38.13;5.30;;;23.30;61.60;;;;;;5063518;28;20073;-53
2022/10/20 12:25:34;;;;;;;5.53;4.20;;;22.70;61.70;;;;;;5069034;28;20036;-52
2022/10/20 12:28:23;;;;;;;37.78;5.65;;;21.80;63.60;;;;;;5074092;28;20096;-55
2022/10/20 12:31:00;;;;;;;13.73;6.68;;;21.40;65.70;;;;;;5060504;28;20040;-51
2022/10/20 12:33:40;;;;;;;13.75;6.13;;;21.30;65.80;;;;;;5072423;28;20119;-52
2022/10/20 12:36:33;;;;;;;11.23;4.60;;;21.60;65.80;;;;;;5072447;28;20480;-53
2022/10/20 12:39:13;;;;;;;9.32;4.70;;;21.60;65.00;;;;;;5060432;28;20116;-53
2022/10/20 12:42:00;;;;;;;14.35;4.75;;;21.60;65.70;;;;;;5072663;28;20113;-54
2022/10/20 12:44:29;;;;;;;10.02;4.25;;;22.60;64.60;;;;;;5073169;28;20028;-54
2022/10/20 12:47:04;;;;;;;11.10;4.32;;;23.30;63.60;;;;;;5072519;28;20020;-51
2022/10/20 12:49:37;;;;;;;7.78;4.03;;;23.60;61.50;;;;;;5072354;28;20429;-52
2022/10/20 12:52:06;;;;;;;7.43;4.85;;;23.90;61.80;;;;;;5070911;28;20028;-55
2022/10/20 12:54:39;;;;;;;10.00;4.55;;;23.80;60.60;;;;;;5072449;28;20028;-52
2022/10/20 12:57:35;;;;;;;10.73;3.97;;;23.90;61.80;;;;;;5072335;28;20023;-54
2022/10/20 13:00:01;;;;;;;4.40;3.85;;;24.20;60.70;;;;;;5072255;28;20224;-53
2022/10/20 13:02:31;;;;;;;7.10;4.30;;;24.60;60.50;;;;;;5071962;28;20077;-53
2022/10/20 13:05:03;;;;;;;6.57;4.57;;;24.80;59.80;;;;;;5072190;28;20024;-52
2022/10/20 13:07:46;;;;;;;9.50;4.72;;;24.10;59.80;;;;;;5071808;28;20071;-53